Tiempo atmosférico en la estación meteorológica de San Bartolome Tirajana, El Matorral, Las Palmas (41 m.)



Fecha
DESCASC
Temp. máxima en grados centígrados (hora)
DESCASC
Temp. mínima en grados centígrados (hora)
DESCASC
Temp. media en grados centígrados
DESCASC
Racha de viento máxima en m/sg (hora)
DESCASC
Velocidad máxima media en intervalos de 10 minutos(hora)
DESCASC
Precipitaciones diarias en mm
DESCASC
Precipitaciones de 00:00 a 06:00 en mm
DESCASC
Precipitaciones de 06:00 a 12:00 en mm
DESCASC
Precipitaciones de 12:00 a 18:00 en mm
DESCASC
Precipitaciones de 18:00 a 24:00 en mm
DESCASC
17-10-2019 25.1 (15:20) 20.5 (08:10) 22.8 13.61 (13:20) 8.33 (13:40) 0 0 0 0 0
16-10-2019 24 (16:40) 20.2 (06:20) 22.1 10.83 (10:00) 6.67 (10:30) 0 0 0 0 0
15-10-2019 24.7 (13:10) 20.5 (07:30) 22.6 12.78 (17:20) 7.22 (16:20) 0 0 0 0 0
14-10-2019 25.9 (14:00) 17.6 (05:50) 21.8 13.89 (16:00) 8.61 (15:00) 0 0 0 0 0
13-10-2019 27.8 (16:20) 19.1 (00:00) 23.4 5.28 (13:30) 3.33 (01:00) 0 0 0 0 0
12-10-2019 25.9 (14:50) 18.4 (00:00) 22.1 8.89 (11:40) 6.11 (11:40) 0 0 0 0 0
11-10-2019 26.6 (15:30) 17.1 (00:00) 21.9 10.83 (14:00) 6.39 (13:00) 0 0 0 0 0
10-10-2019 26.8 (16:30) 19.3 (00:00) 23 11.67 (11:10) 7.5 (11:10) 0 0 0 0 0
09-10-2019 26.5 (13:50) 20.6 (00:00) 23.6 14.44 (11:30) 8.33 (11:40) 0 0 0 0 0
08-10-2019 26.6 (14:50) 20.9 (00:00) 23.8 15 (10:30) 9.72 (11:10) 0 0 0 0 0
07-10-2019 27.1 (15:00) 21.3 (00:00) 24.2 14.44 (05:10) 8.61 (00:40) 0 0 0 0 0
06-10-2019 26.8 (14:00) 21.6 (00:00) 24.2 18.33 (01:30) 11.39 (00:50) 0 0 0 0 0
05-10-2019 28.8 (14:00) 22 (00:00) 25.4 17.78 (03:00) 11.11 (14:20) 0 0 0 0 0
04-10-2019 28.8 (15:10) 22.2 (00:00) 25.5 16.39 (14:20) 10.56 (08:30) 0 0 0 0 0
03-10-2019 29.4 (11:20) 22.3 (00:00) 25.8 16.67 (16:20) 10.56 (14:20) 0 0 0 0 0
02-10-2019 30.8 (11:50) 22.4 (00:00) 26.6 12.5 (01:50) 8.06 (01:50) 0 0 0 0 0
01-10-2019 32.1 (15:10) 21.9 (00:00) 27 15.83 (13:20) 10.83 (15:00) 0 0 0 0 0
30-09-2019 30.7 (12:00) 21.8 (00:00) 26.3 14.72 (01:10) 9.17 (01:10) 0 0 0 0 0
29-09-2019 29.4 (15:30) 21.3 (00:00) 25.3 13.33 (05:40) 8.06 (06:40) 0 0 0 0 0
28-09-2019 26.6 (15:50) 21.2 (00:00) 23.9 14.44 (09:20) 8.89 (13:40) 0 0 0 0 0
27-09-2019 27.2 (13:30) 21.4 (00:00) 24.3 14.72 (19:10) 8.89 (10:30) 0 0 0 0 0
26-09-2019 27.6 (14:00) 21.9 (00:00) 24.8 15.56 (12:00) 10 (11:20) 0 0 0 0 0
25-09-2019 27.8 (15:30) 19.9 (00:00) 23.8 16.67 (19:20) 8.89 (13:50) 0 0 0 0 0
24-09-2019 27.4 (13:30) 21.5 (00:00) 24.4 16.11 (16:00) 10.28 (14:20) 0 0 0 0 0
23-09-2019 27.5 (13:40) 21.4 (00:00) 24.4 15.28 (12:30) 9.72 (18:00) 0 0 0 0 0
22-09-2019 27.9 (17:30) 18.7 (00:00) 23.3 13.33 (23:20) 8.33 (21:40) 0 0 0 0 0
21-09-2019 27.4 (14:40) 18.3 (00:00) 22.8 9.17 (13:00) 5.83 (14:30) 0 0 0 0 0
20-09-2019 27.9 (16:40) 20.7 (00:00) 24.3 14.17 (02:10) 8.61 (01:20) 0 0 0 0 0

Gráficas

Temp. máximas Temp. mínimas Temp. medias Precipitaciones Rachas de viento máximas Velocidades máximas media en intervalos de 10 minutos

Datos horarios

Fecha y hora oficial Temperatura (ºC) Velocidad del viento (km/h) Dirección del viento Racha (km/h) Dirección de racha Precipitación (mm) Presión (hPa) Tendencia (hPa) Humedad (%)
2019-10-19 23:00:00 21.3 3 Noroeste 23 Norte 0 -- -- 68
2019-10-19 22:00:00 22.7 17 Norte 37 Norte 0 -- -- 62
2019-10-19 21:00:00 22.6 21 Nordeste 36 Nordeste 0 -- -- 64
2019-10-19 20:00:00 23.1 14 Nordeste 31 Nordeste 0 -- -- 62
2019-10-19 19:00:00 24.8 12 Norte 31 Nordeste 0 -- -- 57
2019-10-19 18:00:00 26.3 15 Norte 33 Nordeste 0 -- -- 53
2019-10-19 17:00:00 27 11 Este 26 Sudoeste 0 -- -- 57
2019-10-19 16:00:00 27.3 6 Sur 40 Nordeste 0 -- -- 55
2019-10-19 15:00:00 27.2 23 Nordeste 43 Nordeste 0 -- -- 51
2019-10-19 14:00:00 26.2 28 Nordeste 43 Nordeste 0 -- -- 58
2019-10-19 13:00:00 26.4 23 Nordeste 42 Nordeste 0 -- -- 53
2019-10-19 12:00:00 25.8 23 Nordeste 39 Nordeste 0 -- -- 56
2019-10-19 11:00:00 25.2 18 Nordeste 33 Nordeste 0 -- -- 58
2019-10-19 10:00:00 24 8 Nordeste 19 Noroeste 0 -- -- 61
2019-10-19 09:00:00 19.5 5 Norte 12 Noroeste 0 -- -- 74
2019-10-19 08:00:00 19 10 Noroeste 25 Norte 0 -- -- 78
2019-10-19 07:00:00 19.1 12 Norte 24 Norte 0 -- -- 76
2019-10-19 06:00:00 19 6 Norte 18 Nordeste 0 -- -- 74
2019-10-19 05:00:00 20.3 12 Norte 24 Norte 0 -- -- 70
2019-10-19 04:00:00 19.7 9 Noroeste 16 Nordeste 0 -- -- 75
2019-10-19 03:00:00 20.5 10 Norte 24 Norte 0 -- -- 70
2019-10-19 02:00:00 20.1 8 Norte 20 Norte 0 -- -- 71
2019-10-19 01:00:00 20.9 14 Norte 27 Norte 0 -- -- 71
2019-10-19 00:00:00 21.3 12 Norte 36 Norte 0 -- -- 68
2019-10-18 23:00:00 21.6 22 Norte 40 Norte 0 -- -- 65
2019-10-18 22:00:00 21.5 19 Norte 33 Nordeste 0 -- -- 68
2019-10-18 21:00:00 21.4 16 Nordeste 31 Norte 0 -- -- 70
2019-10-18 20:00:00 21.7 20 Nordeste 37 Nordeste 0 -- -- 68
2019-10-18 19:00:00 22.8 21 Nordeste 40 Nordeste 0 -- -- 66
2019-10-18 18:00:00 23.8 20 Nordeste 44 Nordeste 0 -- -- 63
2019-10-18 17:00:00 24.7 23 Nordeste 45 Nordeste 0 -- -- 61
2019-10-18 16:00:00 25.1 26 Nordeste 44 Nordeste 0 -- -- 60
2019-10-18 15:00:00 25.3 26 Nordeste 45 Nordeste 0 -- -- 57
2019-10-18 14:00:00 26.2 24 Nordeste 47 Nordeste 0 -- -- 52
2019-10-18 13:00:00 25.5 26 Nordeste 40 Nordeste 0 -- -- 57
2019-10-18 12:00:00 25.4 19 Nordeste 35 Norte 0 -- -- 50
2019-10-18 11:00:00 24.2 18 Nordeste 33 Nordeste 0 -- -- 60
2019-10-18 10:00:00 22.6 10 Noroeste 15 Oeste 0 -- -- 63
2019-10-18 09:00:00 20 8 Noroeste 16 Noroeste 0 -- -- 69
2019-10-18 08:00:00 19.9 12 Noroeste 21 Noroeste 0 -- -- 72
2019-10-18 07:00:00 19.3 7 Norte 20 Norte 0 -- -- 69
2019-10-18 06:00:00 19.9 13 Norte 28 Norte 0 -- -- 67
2019-10-18 05:00:00 20.6 15 Norte 27 Norte 0 -- -- 63
2019-10-18 04:00:00 20.4 14 Norte 36 Norte 0 -- -- 62
2019-10-18 03:00:00 20.2 15 Norte 31 Norte 0 -- -- 64
2019-10-18 02:00:00 20.8 17 Norte 30 Norte 0 -- -- 64
2019-10-18 01:00:00 21.1 19 Norte 34 Norte 0 -- -- 61
2019-10-18 00:00:00 20.8 14 Norte 32 Norte 0 -- -- 67
2019-10-17 23:00:00 21.2 19 Norte 34 Norte 0 -- -- 69
2019-10-17 22:00:00 21.3 15 Norte 30 Norte 0 -- -- 65
2019-10-17 21:00:00 21.4 13 Norte 31 Norte 0 -- -- 63
2019-10-17 20:00:00 21.8 19 Nordeste 34 Nordeste 0 -- -- 58
2019-10-17 19:00:00 22.8 19 Nordeste 37 Nordeste 0 -- -- 58
2019-10-17 18:00:00 23.8 21 Nordeste 40 Nordeste 0 -- -- 52
2019-10-17 17:00:00 24 25 Nordeste 43 Nordeste 0 -- -- 54
2019-10-17 16:00:00 24.4 26 Nordeste 43 Nordeste 0 -- -- 53
2019-10-17 15:00:00 24.9 23 Nordeste 45 Nordeste 0 -- -- 53
2019-10-17 14:00:00 24.5 26 Nordeste 49 Este 0 -- -- 54
2019-10-17 13:00:00 24.7 27 Nordeste 45 Nordeste 0 -- -- 56
2019-10-17 12:00:00 24.4 26 Nordeste 45 Nordeste 0 -- -- 57
2019-10-17 11:00:00 23.6 23 Nordeste 40 Norte 0 -- -- 59
2019-10-17 10:00:00 22.4 24 Nordeste 40 Nordeste 0 -- -- 61
2019-10-17 09:00:00 20.9 17 Nordeste 31 Nordeste 0 -- -- 70
2019-10-17 08:00:00 20.6 16 Nordeste 33 Nordeste 0 -- -- 72
2019-10-17 07:00:00 21 14 Nordeste 28 Norte 0 -- -- 71
2019-10-17 06:00:00 21 13 Nordeste 27 Norte 0 -- -- 70
2019-10-17 05:00:00 20.8 17 Nordeste 28 Nordeste 0 -- -- 71
2019-10-17 04:00:00 20.7 14 Nordeste 33 Nordeste 0 -- -- 73
2019-10-17 03:00:00 20.8 16 Nordeste 32 Norte 0 -- -- 74
2019-10-17 02:00:00 21.1 19 Nordeste 39 Norte 0 -- -- 71
2019-10-17 01:00:00 21.4 17 Nordeste 32 Nordeste 0 -- -- 74
2019-10-17 00:00:00 21.4 15 Nordeste 27 Nordeste 0 -- -- 74
2019-10-16 23:00:00 21.5 14 Norte 27 Nordeste 0 -- -- 72
2019-10-16 22:00:00 21.5 12 Nordeste 22 Nordeste 0 -- -- 74
2019-10-16 21:00:00 21.6 13 Nordeste 29 Nordeste 0 -- -- 74
2019-10-16 20:00:00 21.9 15 Nordeste 29 Nordeste 0 -- -- 71
2019-10-16 19:00:00 22.4 15 Nordeste 29 Norte 0 -- -- 64
2019-10-16 18:00:00 23.2 15 Nordeste 33 Norte 0 -- -- 63
2019-10-16 17:00:00 23.8 21 Nordeste 35 Nordeste 0 -- -- 58
2019-10-16 16:00:00 23.3 21 Nordeste 35 Nordeste 0 -- -- 68
2019-10-16 15:00:00 22.7 17 Nordeste 32 Nordeste 0 -- -- 70
2019-10-16 14:00:00 23.3 20 Nordeste 33 Nordeste 0 -- -- 67
2019-10-16 13:00:00 22.4 18 Nordeste 36 Nordeste 0 -- -- 71
2019-10-16 12:00:00 22.2 23 Nordeste 37 Nordeste 0 -- -- 72
2019-10-16 11:00:00 23.2 20 Nordeste 38 Nordeste 0 -- -- 66
2019-10-16 10:00:00 22.1 19 Nordeste 39 Nordeste 0 -- -- 70
2019-10-16 09:00:00 21.3 14 Nordeste 29 Norte 0 -- -- 75
2019-10-16 08:00:00 20.6 15 Norte 23 Norte 0 -- -- 78
2019-10-16 07:00:00 20.4 13 Nordeste 21 Norte 0 -- -- 77
2019-10-16 06:00:00 20.4 13 Nordeste 21 Norte 0 -- -- 76
2019-10-16 05:00:00 20.6 12 Nordeste 26 Nordeste 0 -- -- 75
2019-10-16 04:00:00 20.9 12 Nordeste 25 Nordeste 0 -- -- 75
2019-10-16 03:00:00 21.1 13 Nordeste 26 Nordeste 0 -- -- 74
2019-10-16 02:00:00 21.1 12 Nordeste 30 Nordeste 0 -- -- 74
2019-10-16 01:00:00 21.2 14 Nordeste 31 Nordeste 0 -- -- 74
2019-10-16 00:00:00 21.3 20 Nordeste 36 Norte 0 -- -- 72
2019-10-15 23:00:00 21.3 18 Nordeste 42 Nordeste 0 -- -- 69
2019-10-15 22:00:00 21.6 19 Nordeste 34 Norte 0 -- -- 70
2019-10-15 21:00:00 21.7 20 Nordeste 38 Nordeste 0 -- -- 67
2019-10-15 20:00:00 21.7 18 Nordeste 39 Norte 0 -- -- 68
2019-10-15 19:00:00 22 22 Nordeste 42 Nordeste 0 -- -- 62
2019-10-15 18:00:00 23.1 23 Nordeste 46 Nordeste 0 -- -- 59
2019-10-15 17:00:00 23.8 25 Nordeste 44 Nordeste 0 -- -- 57
2019-10-15 16:00:00 24.7 26 Nordeste 42 Nordeste 0 -- -- 56
2019-10-15 15:00:00 23.8 20 Nordeste 35 Norte 0 -- -- 63
2019-10-15 14:00:00 24.4 20 Nordeste 32 Nordeste 0 -- -- 62
2019-10-15 13:00:00 24.6 20 Nordeste 35 Este 0 -- -- 63
2019-10-15 12:00:00 23.9 19 Nordeste 35 Nordeste 0 -- -- 64
2019-10-15 11:00:00 23.8 20 Nordeste 36 Nordeste 0 -- -- 63
2019-10-15 10:00:00 23 19 Nordeste 31 Nordeste 0 -- -- 64
2019-10-15 09:00:00 21.4 15 Nordeste 27 Nordeste 0 -- -- 72
2019-10-15 08:00:00 20.6 16 Norte 30 Nordeste 0 -- -- 77
2019-10-15 07:00:00 20.6 18 Norte 31 Norte 0 -- -- 77
2019-10-15 06:00:00 20.7 17 Nordeste 31 Nordeste 0 -- -- 75
2019-10-15 05:00:00 20.8 18 Norte 42 Nordeste 0 -- -- 73
2019-10-15 04:00:00 21 23 Norte 39 Norte 0 -- -- 73
2019-10-15 03:00:00 21.1 20 Norte 34 Norte 0 -- -- 68
2019-10-15 02:00:00 21 18 Nordeste 39 Norte 0 -- -- 71
2019-10-15 01:00:00 21 22 Nordeste 37 Norte 0 -- -- 71
2019-10-15 00:00:00 21.1 24 Nordeste 40 Nordeste 0 -- -- 69
2019-10-14 23:00:00 21.3 21 Norte 42 Nordeste 0 -- -- 65
2019-10-14 22:00:00 21.2 22 Nordeste 35 Norte 0 -- -- 69
2019-10-14 21:00:00 21.6 18 Nordeste 35 Nordeste 0 -- -- 66
2019-10-14 20:00:00 22.1 23 Nordeste 37 Nordeste 0 -- -- 63
2019-10-14 19:00:00 23.7 18 Nordeste 35 Nordeste 0 -- -- 57
2019-10-14 18:00:00 24.2 29 Norte 50 Norte 0 -- -- 61
2019-10-14 17:00:00 24.7 28 Nordeste 48 Nordeste 0 -- -- 60
2019-10-14 16:00:00 25 29 Nordeste 50 Nordeste 0 -- -- 60
2019-10-14 15:00:00 24.5 31 Nordeste 48 Nordeste 0 -- -- 61
2019-10-14 14:00:00 25.9 24 Nordeste 46 Nordeste 0 -- -- 56
2019-10-14 13:00:00 25.7 24 Nordeste 44 Nordeste 0 -- -- 59
2019-10-14 12:00:00 25.3 24 Nordeste 44 Nordeste 0 -- -- 61
2019-10-14 11:00:00 24.1 22 Nordeste 41 Nordeste 0 -- -- 63
2019-10-14 10:00:00 23.1 18 Nordeste 39 Nordeste 0 -- -- 68
2019-10-14 09:00:00 21.6 15 Nordeste 36 Nordeste 0 -- -- 76
2019-10-14 08:00:00 20.5 13 Nordeste 34 Nordeste 0 -- -- 80
2019-10-14 07:00:00 20.6 16 Norte 31 Nordeste 0 -- -- 78
2019-10-14 06:00:00 17.7 7 Norte 12 Noroeste 0 -- -- 75
2019-10-14 05:00:00 18.1 8 Norte 13 Norte 0 -- -- 76
2019-10-14 04:00:00 18.2 5 Norte 10 Noroeste 0 -- -- 80
2019-10-14 03:00:00 18.1 6 Noroeste 11 Norte 0 -- -- 79
2019-10-14 02:00:00 18.1 4 Noroeste 8 Nordeste 0 -- -- 77
2019-10-14 01:00:00 19.2 5 Norte 9 Norte 0 -- -- 74
2019-10-14 00:00:00 19.1 4 Noroeste 9 Norte 0 -- -- 75
2019-10-13 23:00:00 20.4 4 Norte 8 Norte 0 -- -- 75
2019-10-13 22:00:00 20.9 4 Norte 9 Nordeste 0 -- -- 73
2019-10-13 21:00:00 21.5 5 Nordeste 10 Este 0 -- -- 71
2019-10-13 20:00:00 22.1 6 Este 11 Nordeste 0 -- -- 69
2019-10-13 19:00:00 23 7 Este 14 Este 0 -- -- 65
2019-10-13 18:00:00 24.9 4 Sur 17 Sudeste 0 -- -- 57
2019-10-13 17:00:00 26.6 8 Sudeste 17 Sudeste 0 -- -- 53
2019-10-13 16:00:00 26 6 Sudeste 17 Sudeste 0 -- -- 53
2019-10-13 15:00:00 26.5 10 Sudeste 18 Sudeste 0 -- -- 53
2019-10-13 14:00:00 26.6 10 Sudeste 19 Sudeste 0 -- -- 53
2019-10-13 13:00:00 26.6 9 Sur 19 Este 0 -- -- 53
2019-10-13 12:00:00 26.9 8 Sudeste 15 Sudeste 0 -- -- 51
2019-10-13 11:00:00 25.5 11 Sudeste 16 Sudeste 0 -- -- 53
2019-10-13 10:00:00 23 4 Norte 8 Noroeste 0 -- -- 57
2019-10-13 09:00:00 20.7 5 Noroeste 11 Noroeste 0 -- -- 64
2019-10-13 08:00:00 19.9 8 Noroeste 10 Noroeste 0 -- -- 68
2019-10-13 07:00:00 19.7 5 Norte 7 Norte 0 -- -- 73
2019-10-13 06:00:00 20.3 4 Norte 13 Nordeste 0 -- -- 75
2019-10-13 05:00:00 20.7 8 Nordeste 15 Norte 0 -- -- 74
2019-10-13 04:00:00 20.9 8 Nordeste 17 Norte 0 -- -- 74
2019-10-13 03:00:00 21.1 9 Nordeste 15 Nordeste 0 -- -- 74
2019-10-13 02:00:00 20.8 9 Norte 19 Nordeste 0 -- -- 77
2019-10-13 01:00:00 20.8 12 Nordeste 19 Nordeste 0 -- -- 78
2019-10-13 00:00:00 20.7 10 Nordeste 19 Nordeste 0 -- -- 78
2019-10-12 23:00:00 21.1 12 Nordeste 24 Nordeste 0 -- -- 77
2019-10-12 22:00:00 21.5 12 Nordeste 32 Norte 0 -- -- 76
2019-10-12 21:00:00 21.9 15 Nordeste 29 Norte 0 -- -- 74
2019-10-12 20:00:00 22.6 16 Nordeste 29 Nordeste 0 -- -- 69
2019-10-12 19:00:00 23.1 14 Nordeste 28 Nordeste 0 -- -- 69
2019-10-12 18:00:00 23.5 12 Nordeste 23 Nordeste 0 -- -- 65
2019-10-12 17:00:00 23.4 13 Este 24 Este 0 -- -- 65
2019-10-12 16:00:00 23.9 14 Este 27 Este 0 -- -- 65
2019-10-12 15:00:00 25.1 17 Este 32 Nordeste 0 -- -- 64
2019-10-12 14:00:00 25 21 Este 31 Este 0 -- -- 64
2019-10-12 13:00:00 25.4 19 Nordeste 31 Nordeste 0 -- -- 62
2019-10-12 12:00:00 24.6 22 Nordeste 32 Nordeste 0 -- -- 64
2019-10-12 11:00:00 24.7 17 Nordeste 28 Nordeste 0 -- -- 61
2019-10-12 10:00:00 23.2 15 Nordeste 23 Nordeste 0 -- -- 68
2019-10-12 09:00:00 19 5 Noroeste 11 Noroeste 0 -- -- 76
2019-10-12 08:00:00 18.4 8 Norte 14 Norte 0 -- -- 79
2019-10-12 07:00:00 18.8 7 Nordeste 12 Norte 0 -- -- 82
2019-10-12 06:00:00 20.2 9 Nordeste 18 Nordeste 0 -- -- 80
2019-10-12 05:00:00 20.4 10 Nordeste 19 Nordeste 0 -- -- 79
2019-10-12 04:00:00 20.6 9 Norte 18 Nordeste 0 -- -- 76
2019-10-12 03:00:00 20.4 9 Norte 19 Norte 0 -- -- 71
2019-10-12 02:00:00 20.2 6 Norte 16 Noroeste 0 -- -- 78
2019-10-12 01:00:00 20.4 4 Nordeste 12 Norte 0 -- -- 70
2019-10-12 00:00:00 21.5 7 Norte 24 Nordeste 0 -- -- 67
2019-10-11 23:00:00 21.9 14 Nordeste 29 Nordeste 0 -- -- 72
2019-10-11 22:00:00 22.6 16 Nordeste 30 Norte 0 -- -- 69
2019-10-11 21:00:00 22.9 19 Nordeste 33 Nordeste 0 -- -- 65
2019-10-11 20:00:00 22.5 15 Nordeste 33 Nordeste 0 -- -- 70
2019-10-11 19:00:00 23.3 16 Nordeste 35 Nordeste 0 -- -- 69
2019-10-11 18:00:00 24 20 Nordeste 38 Nordeste 0 -- -- 67
2019-10-11 17:00:00 25.6 21 Nordeste 36 Nordeste 0 -- -- 61
2019-10-11 16:00:00 25.5 22 Este 36 Este 0 -- -- 63
2019-10-11 15:00:00 26.5 19 Nordeste 35 Este 0 -- -- 57
2019-10-11 14:00:00 26 21 Este 39 Nordeste 0 -- -- 56
2019-10-11 13:00:00 25.6 23 Nordeste 34 Este 0 -- -- 61
2019-10-11 12:00:00 26.1 17 Nordeste 31 Este 0 -- -- 57
2019-10-11 11:00:00 25.4 12 Nordeste 26 Nordeste 0 -- -- 56
2019-10-11 10:00:00 24 5 Sur 9 Sudoeste 0 -- -- 68
2019-10-11 09:00:00 20.1 6 Noroeste 10 Noroeste 0 -- -- 73
2019-10-11 08:00:00 17.7 7 Noroeste 9 Norte 0 -- -- 87
2019-10-11 07:00:00 17.6 5 Noroeste 10 Norte 0 -- -- 84
2019-10-11 06:00:00 17.5 8 Noroeste 9 Noroeste 0 -- -- 89
2019-10-11 05:00:00 18.2 2 Norte 9 Norte 0 -- -- 85
2019-10-11 04:00:00 19 8 Norte 11 Oeste 0 -- -- 84
2019-10-11 03:00:00 19.4 4 Noroeste 11 Norte 0 -- -- 75
2019-10-11 02:00:00 20.2 6 Norte 19 Nordeste 0 -- -- 79
2019-10-11 01:00:00 21.1 11 Nordeste 20 Norte 0 -- -- 81
2019-10-11 00:00:00 21.4 12 Nordeste 23 Nordeste 0 -- -- 79
2019-10-10 23:00:00 21.7 12 Nordeste 28 Nordeste 0 -- -- 78
2019-10-10 22:00:00 22.2 17 Nordeste 30 Nordeste 0 -- -- 76
2019-10-10 21:00:00 22.5 18 Nordeste 33 Nordeste 0 -- -- 76
2019-10-10 20:00:00 22.7 15 Nordeste 30 Nordeste 0 -- -- 78
2019-10-10 19:00:00 23.5 18 Nordeste 35 Nordeste 0 -- -- 74
2019-10-10 18:00:00 24.3 19 Nordeste 33 Este 0 -- -- 73
2019-10-10 17:00:00 25.3 21 Nordeste 34 Este 0 -- -- 66
2019-10-10 16:00:00 26.1 19 Nordeste 37 Nordeste 0 -- -- 61
2019-10-10 15:00:00 25.4 22 Nordeste 37 Este 0 -- -- 66
2019-10-10 14:00:00 26 22 Nordeste 35 Nordeste 0 -- -- 55
2019-10-10 13:00:00 26.2 21 Nordeste 35 Nordeste 0 -- -- 61
2019-10-10 12:00:00 26 20 Nordeste 42 Nordeste 0 -- -- 64
2019-10-10 11:00:00 25.2 26 Nordeste 42 Nordeste 0 -- -- 60
2019-10-10 10:00:00 24.2 20 Nordeste 35 Nordeste 0 -- -- 61
2019-10-10 09:00:00 21.3 9 Norte 19 Nordeste 0 -- -- 69
2019-10-10 08:00:00 19.6 9 Noroeste 14 Noroeste 0 -- -- 77
2019-10-10 07:00:00 20 6 Norte 22 Nordeste 0 -- -- 73
2019-10-10 06:00:00 21.2 12 Nordeste 25 Norte 0 -- -- 68
2019-10-10 05:00:00 21.1 13 Nordeste 25 Nordeste 0 -- -- 70
2019-10-10 04:00:00 21.2 16 Norte 26 Nordeste 0 -- -- 73
2019-10-10 03:00:00 21.6 16 Norte 28 Norte 0 -- -- 70
2019-10-10 02:00:00 21.7 16 Norte 31 Nordeste 0 -- -- 67
2019-10-10 01:00:00 21.6 18 Nordeste 29 Nordeste 0 -- -- 72
2019-10-10 00:00:00 21.7 13 Nordeste 34 Nordeste 0 -- -- 68
2019-10-09 23:00:00 22 15 Nordeste 29 Nordeste 0 -- -- 67
2019-10-09 22:00:00 22.1 15 Nordeste 30 Norte 0 -- -- 67
2019-10-09 21:00:00 22.2 14 Nordeste 28 Nordeste 0 -- -- 66
2019-10-09 20:00:00 22.7 16 Nordeste 38 Nordeste 0 -- -- 66
2019-10-09 19:00:00 24.1 21 Nordeste 36 Nordeste 0 -- -- 61
2019-10-09 18:00:00 25 22 Nordeste 43 Nordeste 0 -- -- 59
2019-10-09 17:00:00 25.2 27 Nordeste 49 Nordeste 0 -- -- 61
2019-10-09 16:00:00 25.5 26 Nordeste 43 Nordeste 0 -- -- 59
2019-10-09 15:00:00 25.5 26 Nordeste 43 Nordeste 0 -- -- 59
2019-10-09 14:00:00 26.5 25 Nordeste 44 Nordeste 0 -- -- 56
2019-10-09 13:00:00 26.1 22 Nordeste 45 Nordeste 0 -- -- 56
2019-10-09 12:00:00 25.6 26 Nordeste 52 Norte 0 -- -- 58
2019-10-09 11:00:00 24.2 27 Nordeste 47 Nordeste 0 -- -- 61
2019-10-09 10:00:00 23.1 24 Nordeste 41 Norte 0 -- -- 64
2019-10-09 09:00:00 21.3 25 Norte 41 Norte 0 -- -- 70
2019-10-09 08:00:00 20.8 24 Norte 40 Norte 0 -- -- 72
2019-10-09 07:00:00 20.6 20 Nordeste 37 Norte 0 -- -- 73
2019-10-09 06:00:00 20.8 20 Norte 31 Norte 0 -- -- 71
2019-10-09 05:00:00 20.8 17 Norte 32 Norte 0 -- -- 73
2019-10-09 04:00:00 20.8 15 Norte 28 Norte 0 -- -- 73
2019-10-09 03:00:00 21 20 Norte 42 Norte 0 -- -- 74
2019-10-09 02:00:00 21 25 Norte 42 Norte 0 -- -- 75
2019-10-09 01:00:00 20.9 22 Nordeste 38 Norte 0 -- -- 76
2019-10-09 00:00:00 21.1 17 Norte 30 Nordeste 0 -- -- 75
2019-10-08 23:00:00 21.3 12 Nordeste 26 Nordeste 0 -- -- 72
2019-10-08 22:00:00 21.7 15 Norte 28 Norte 0 -- -- 71
2019-10-08 21:00:00 22 15 Norte 24 Norte 0 -- -- 72
2019-10-08 20:00:00 22.6 13 Nordeste 22 Norte 0 -- -- 70
2019-10-08 19:00:00 23.8 12 Oeste 26 Sudoeste 0 -- -- 72
2019-10-08 18:00:00 26.3 13 Nordeste 35 Nordeste 0 -- -- 61
2019-10-08 17:00:00 26 20 Nordeste 41 Nordeste 0 -- -- 62
2019-10-08 16:00:00 25.7 26 Nordeste 45 Nordeste 0 -- -- 63
2019-10-08 15:00:00 26 26 Nordeste 42 Nordeste 0 -- -- 61
2019-10-08 14:00:00 25.9 25 Nordeste 44 Nordeste 0 -- -- 62
2019-10-08 13:00:00 25.9 28 Nordeste 44 Nordeste 0 -- -- 61
2019-10-08 12:00:00 25.5 28 Nordeste 52 Nordeste 0 -- -- 61
2019-10-08 11:00:00 24.3 30 Nordeste 54 Norte 0 -- -- 66
2019-10-08 10:00:00 23 32 Nordeste 51 Norte 0 -- -- 71
2019-10-08 09:00:00 21.8 22 Nordeste 36 Norte 0 -- -- 75
2019-10-08 08:00:00 20.9 15 Norte 32 Norte 0 -- -- 78
2019-10-08 07:00:00 20.9 18 Nordeste 36 Nordeste 0 -- -- 80
2019-10-08 06:00:00 21 18 Nordeste 30 Nordeste 0 -- -- 79
2019-10-08 05:00:00 21.4 18 Norte 31 Norte 0 -- -- 78
2019-10-08 04:00:00 21.2 14 Nordeste 24 Norte 0 -- -- 79
2019-10-08 03:00:00 21.3 16 Nordeste 32 Nordeste 0 -- -- 79
2019-10-08 02:00:00 21.3 16 Nordeste 34 Nordeste 0 -- -- 78
2019-10-08 01:00:00 21.5 17 Nordeste 37 Norte 0 -- -- 76
2019-10-08 00:00:00 21.7 20 Nordeste 39 Nordeste 0 -- -- 75
2019-10-07 23:00:00 22 18 Norte 42 Nordeste 0 -- -- 75
2019-10-07 22:00:00 22.1 24 Nordeste 44 Nordeste 0 -- -- 75
2019-10-07 21:00:00 22.3 24 Nordeste 43 Nordeste 0 -- -- 74
2019-10-07 20:00:00 22.7 21 Nordeste 40 Nordeste 0 -- -- 73
2019-10-07 19:00:00 24.3 17 Nordeste 40 Norte 0 -- -- 68
2019-10-07 18:00:00 25.4 20 Nordeste 39 Nordeste 0 -- -- 66
2019-10-07 17:00:00 26.4 20 Nordeste 35 Nordeste 0 -- -- 62
2019-10-07 16:00:00 26.7 21 Nordeste 35 Nordeste 0 -- -- 62
2019-10-07 15:00:00 27.1 22 Nordeste 38 Este 0 -- -- 60
2019-10-07 14:00:00 26 24 Nordeste 37 Este 0 -- -- 62
2019-10-07 13:00:00 26.1 22 Nordeste 40 Nordeste 0 -- -- 60
2019-10-07 12:00:00 25.5 22 Nordeste 40 Nordeste 0 -- -- 64
2019-10-07 11:00:00 24.3 23 Nordeste 37 Norte 0 -- -- 65
2019-10-07 10:00:00 23.4 20 Nordeste 37 Norte 0 -- -- 69
2019-10-07 09:00:00 22 20 Nordeste 37 Nordeste 0 -- -- 72
2019-10-07 08:00:00 21.3 23 Nordeste 46 Norte 0 -- -- 75
2019-10-07 07:00:00 21.6 28 Norte 50 Nordeste 0 -- -- 73
2019-10-07 06:00:00 21.5 28 Nordeste 52 Nordeste 0 -- -- 74
2019-10-07 05:00:00 21.4 28 Nordeste 46 Nordeste 0 -- -- 75
2019-10-07 04:00:00 21.4 27 Nordeste 46 Nordeste 0 -- -- 73
2019-10-07 03:00:00 21.6 27 Nordeste 51 Nordeste 0 -- -- 75
2019-10-07 02:00:00 21.6 27 Nordeste 50 Nordeste 0 -- -- 74
2019-10-07 01:00:00 21.8 27 Nordeste 50 Nordeste 0 -- -- 72
2019-10-07 00:00:00 21.8 26 Nordeste 46 Nordeste 0 -- -- 71
2019-10-06 23:00:00 22.2 29 Nordeste 46 Norte 0 -- -- 70
2019-10-06 22:00:00 22.2 24 Nordeste 44 Nordeste 0 -- -- 69
2019-10-06 21:00:00 22.4 22 Nordeste 40 Nordeste 0 -- -- 69
2019-10-06 20:00:00 22.4 24 Nordeste 49 Norte 0 -- -- 73
2019-10-06 19:00:00 23.6 29 Nordeste 55 Nordeste 0 -- -- 68
2019-10-06 18:00:00 24.8 30 Nordeste 53 Nordeste 0 -- -- 64
2019-10-06 17:00:00 25.7 30 Nordeste 53 Nordeste 0 -- -- 59
2019-10-06 16:00:00 26.2 30 Nordeste 49 Nordeste 0 -- -- 60
2019-10-06 15:00:00 26.7 27 Nordeste 49 Nordeste 0 -- -- 57
2019-10-06 14:00:00 26.8 28 Nordeste 51 Nordeste 0 -- -- 58
2019-10-06 13:00:00 26.7 29 Nordeste 53 Nordeste 0 -- -- 58
2019-10-06 12:00:00 25.8 34 Nordeste 54 Nordeste 0 -- -- 57
2019-10-06 11:00:00 24.8 35 Nordeste 56 Norte 0 -- -- 62
2019-10-06 10:00:00 23.6 39 Nordeste 60 Norte 0 -- -- 63
2019-10-06 09:00:00 22.6 31 Nordeste 53 Norte 0 -- -- 69
2019-10-06 08:00:00 22 27 Nordeste 51 Nordeste 0 -- -- 72
2019-10-06 07:00:00 21.6 26 Nordeste 52 Nordeste 0 -- -- 75
2019-10-06 06:00:00 21.9 24 Nordeste 53 Nordeste 0 -- -- 74
2019-10-06 05:00:00 22 31 Nordeste 56 Nordeste 0 -- -- 74
2019-10-06 04:00:00 22.4 32 Nordeste 62 Nordeste 0 -- -- 72
2019-10-06 03:00:00 22.2 36 Nordeste 60 Nordeste 0 -- -- 73
2019-10-06 02:00:00 22.3 35 Nordeste 66 Nordeste 0 -- -- 73
2019-10-06 01:00:00 22.5 37 Nordeste 63 Nordeste 0 -- -- 70
2019-10-06 00:00:00 22.2 33 Nordeste 62 Nordeste 0 -- -- 71
2019-10-05 23:00:00 22.2 31 Nordeste 61 Nordeste 0 -- -- 73
2019-10-05 22:00:00 22.8 29 Nordeste 50 Norte 0 -- -- 67
2019-10-05 21:00:00 22.9 28 Nordeste 53 Norte 0 -- -- 67
2019-10-05 20:00:00 23.4 31 Nordeste 58 Nordeste 0 -- -- 68
2019-10-05 19:00:00 24.8 33 Nordeste 57 Nordeste 0 -- -- 64
2019-10-05 18:00:00 26.5 30 Nordeste 58 Nordeste 0 -- -- 61
2019-10-05 17:00:00 27.7 31 Nordeste 60 Nordeste 0 -- -- 55
2019-10-05 16:00:00 27.6 36 Nordeste 64 Nordeste 0 -- -- 57
2019-10-05 15:00:00 28.4 36 Nordeste 64 Nordeste 0 -- -- 55
2019-10-05 14:00:00 28.8 32 Nordeste 63 Nordeste 0 -- -- 51
2019-10-05 13:00:00 28 35 Nordeste 62 Nordeste 0 -- -- 55
2019-10-05 12:00:00 26.5 37 Nordeste 64 Nordeste 0 -- -- 59
2019-10-05 11:00:00 25.9 35 Nordeste 56 Nordeste 0 -- -- 63
2019-10-05 10:00:00 25.2 38 Norte 57 Norte 0 -- -- 64
2019-10-05 09:00:00 24 32 Norte 57 Norte 0 -- -- 66
2019-10-05 08:00:00 23.3 36 Nordeste 60 Norte 0 -- -- 66
2019-10-05 07:00:00 23 37 Nordeste 61 Nordeste 0 -- -- 67
2019-10-05 06:00:00 22.2 29 Nordeste 61 Nordeste 0 -- -- 73
2019-10-05 05:00:00 22.7 39 Nordeste 58 Nordeste 0 -- -- 68
2019-10-05 04:00:00 22.7 36 Nordeste 59 Nordeste 0 -- -- 67
2019-10-05 03:00:00 22.6 38 Nordeste 64 Norte 0 -- -- 67
2019-10-05 02:00:00 22.1 34 Nordeste 57 Nordeste 0 -- -- 72
2019-10-05 01:00:00 22.4 37 Nordeste 63 Nordeste 0 -- -- 69
2019-10-05 00:00:00 22.5 33 Nordeste 54 Nordeste 0 -- -- 65
2019-10-04 23:00:00 22.5 23 Nordeste 42 Nordeste 0 -- -- 64
2019-10-04 22:00:00 22.8 24 Nordeste 46 Nordeste 0 -- -- 63
2019-10-04 21:00:00 22.8 26 Nordeste 43 Nordeste 0 -- -- 67
2019-10-04 20:00:00 23.7 24 Nordeste 45 Nordeste 0 -- -- 63
2019-10-04 19:00:00 25.2 26 Nordeste 54 Nordeste 0 -- -- 63
2019-10-04 18:00:00 26 32 Nordeste 54 Nordeste 0 -- -- 60
2019-10-04 17:00:00 27.1 32 Nordeste 54 Norte 0 -- -- 56
2019-10-04 16:00:00 28.5 29 Nordeste 53 Nordeste 0 -- -- 53
2019-10-04 15:00:00 28.2 36 Nordeste 59 Nordeste 0 -- -- 52
2019-10-04 14:00:00 28.7 30 Nordeste 59 Nordeste 0 -- -- 53
2019-10-04 13:00:00 27.9 33 Nordeste 53 Nordeste 0 -- -- 55
2019-10-04 12:00:00 27.5 30 Nordeste 57 Nordeste 0 -- -- 56
2019-10-04 11:00:00 25.6 34 Nordeste 56 Norte 0 -- -- 63
2019-10-04 10:00:00 24.6 35 Nordeste 56 Nordeste 0 -- -- 66
2019-10-04 09:00:00 23 37 Nordeste 58 Nordeste 0 -- -- 71
2019-10-04 08:00:00 22.5 28 Nordeste 45 Nordeste 0 -- -- 69
2019-10-04 07:00:00 22.5 23 Nordeste 47 Nordeste 0 -- -- 68
2019-10-04 06:00:00 22.3 27 Nordeste 40 Nordeste 0 -- -- 70
2019-10-04 05:00:00 22.6 19 Nordeste 45 Nordeste 0 -- -- 66
2019-10-04 04:00:00 22.3 29 Nordeste 45 Nordeste 0 -- -- 73
2019-10-04 03:00:00 23.2 20 Nordeste 35 Nordeste 0 -- -- 64
2019-10-04 02:00:00 23.4 19 Nordeste 39 Norte 0 -- -- 62
2019-10-04 01:00:00 23.3 22 Nordeste 41 Nordeste 0 -- -- 66
2019-10-04 00:00:00 22.9 26 Nordeste 40 Nordeste 0 -- -- 70
2019-10-03 23:00:00 22.5 23 Nordeste 44 Nordeste 0 -- -- 76
2019-10-03 22:00:00 22.7 22 Nordeste 36 Nordeste 0 -- -- 73
2019-10-03 21:00:00 22.8 23 Nordeste 46 Nordeste 0 -- -- 76
2019-10-03 20:00:00 23.2 29 Nordeste 48 Nordeste 0 -- -- 74
2019-10-03 19:00:00 24.7 29 Nordeste 49 Nordeste 0 -- -- 69
2019-10-03 18:00:00 26.6 28 Nordeste 50 Nordeste 0 -- -- 63
2019-10-03 17:00:00 27.5 30 Nordeste 60 Nordeste 0 -- -- 61
2019-10-03 16:00:00 27.1 32 Nordeste 55 Nordeste 0 -- -- 64
2019-10-03 15:00:00 28.5 32 Nordeste 53 Nordeste 0 -- -- 57
2019-10-03 14:00:00 28.5 32 Nordeste 53 Nordeste 0 -- -- 59
2019-10-03 13:00:00 28.2 31 Nordeste 54 Nordeste 0 -- -- 60
2019-10-03 12:00:00 28.2 30 Nordeste 44 Nordeste 0 -- -- 60
2019-10-03 11:00:00 28.1 27 Nordeste 50 Nordeste 0 -- -- 56
2019-10-03 10:00:00 25.6 32 Nordeste 48 Norte 0 -- -- 65
2019-10-03 09:00:00 25.8 28 Nordeste 48 Nordeste 0 -- -- 49
2019-10-03 08:00:00 25.5 24 Nordeste 42 Norte 0 -- -- 47
2019-10-03 07:00:00 25.7 21 Nordeste 41 Nordeste 0 -- -- 49
2019-10-03 06:00:00 26.2 20 Nordeste 37 Nordeste 0 -- -- 45
2019-10-03 05:00:00 25.5 19 Nordeste 30 Nordeste 0 -- -- 46
2019-10-03 04:00:00 24 19 Nordeste 35 Nordeste 0 -- -- 59
2019-10-03 03:00:00 25.3 21 Nordeste 42 Nordeste 0 -- -- 52
2019-10-03 02:00:00 24.5 28 Nordeste 51 Nordeste 0 -- -- 54
2019-10-03 01:00:00 22.3 22 Nordeste 40 Nordeste 0 -- -- 84
2019-10-03 00:00:00 23.6 16 Nordeste 36 Nordeste 0 -- -- 71
2019-10-02 23:00:00 24.5 22 Nordeste 39 Nordeste 0 -- -- 62
2019-10-02 22:00:00 25 21 Nordeste 34 Nordeste 0 -- -- 57
2019-10-02 21:00:00 25.4 21 Nordeste 35 Nordeste 0 -- -- 55
2019-10-02 20:00:00 25.6 14 Nordeste 32 Nordeste 0 -- -- 53
2019-10-02 19:00:00 26.8 18 Nordeste 36 Nordeste 0 -- -- 55
2019-10-02 18:00:00 27.5 21 Nordeste 36 Nordeste 0 -- -- 58
2019-10-02 17:00:00 28.7 21 Nordeste 41 Nordeste 0 -- -- 55
2019-10-02 16:00:00 29.2 25 Nordeste 41 Nordeste 0 -- -- 48
2019-10-02 15:00:00 28.2 24 Nordeste 40 Nordeste 0 -- -- 62
2019-10-02 14:00:00 29.2 22 Nordeste 35 Nordeste 0 -- -- 59
2019-10-02 13:00:00 27.7 26 Nordeste 37 Nordeste 0 -- -- 64
2019-10-02 12:00:00 30.4 18 Nordeste 35 Nordeste 0 -- -- 53
2019-10-02 11:00:00 29 18 Nordeste 30 Norte 0 -- -- 55
2019-10-02 10:00:00 27.7 19 Nordeste 34 Nordeste 0 -- -- 52
2019-10-02 09:00:00 25.9 18 Nordeste 32 Nordeste 0 -- -- 46
2019-10-02 08:00:00 24.6 17 Nordeste 34 Norte 0 -- -- 46
2019-10-02 07:00:00 24.8 23 Nordeste 38 Nordeste 0 -- -- 45
2019-10-02 06:00:00 25 21 Nordeste 41 Nordeste 0 -- -- 46
2019-10-02 05:00:00 27.6 27 Nordeste 44 Norte 0 -- -- 30
2019-10-02 04:00:00 23.9 21 Nordeste 41 Nordeste 0 -- -- 59
2019-10-02 03:00:00 23.2 26 Nordeste 41 Nordeste 0 -- -- 73
2019-10-02 02:00:00 26.1 25 Nordeste 45 Nordeste 0 -- -- 46
2019-10-02 01:00:00 23.3 17 Nordeste 40 Nordeste 0 -- -- 74
2019-10-02 00:00:00 23.5 25 Nordeste 43 Nordeste 0 -- -- 75
2019-10-01 23:00:00 23.7 20 Nordeste 36 Nordeste 0 -- -- 74
2019-10-01 22:00:00 24.2 18 Nordeste 37 Nordeste 0 -- -- 72
2019-10-01 21:00:00 25.9 17 Nordeste 34 Norte 0 -- -- 60
2019-10-01 20:00:00 25.4 20 Nordeste 31 Nordeste 0 -- -- 66
2019-10-01 19:00:00 27.6 18 Nordeste 40 Nordeste 0 -- -- 57
2019-10-01 18:00:00 29.7 27 Nordeste 41 Nordeste 0 -- -- 47
2019-10-01 17:00:00 29.8 28 Nordeste 48 Nordeste 0 -- -- 47
2019-10-01 16:00:00 31.1 32 Nordeste 51 Nordeste 0 -- -- 38
2019-10-01 15:00:00 31.6 39 Nordeste 56 Nordeste 0 -- -- 36
2019-10-01 14:00:00 32 31 Nordeste 57 Nordeste 0 -- -- 36
2019-10-01 13:00:00 30 33 Nordeste 52 Nordeste 0 -- -- 46
2019-10-01 12:00:00 28.1 28 Nordeste 47 Nordeste 0 -- -- 62
2019-10-01 11:00:00 28.1 21 Nordeste 39 Nordeste 0 -- -- 60
2019-10-01 10:00:00 28.1 18 Nordeste 42 Norte 0 -- -- 46
2019-10-01 09:00:00 23.3 19 Nordeste 36 Nordeste 0 -- -- 73
2019-10-01 08:00:00 21.9 13 Nordeste 23 Norte 0 -- -- 78
2019-10-01 07:00:00 22.1 8 Norte 39 Nordeste 0 -- -- 76
2019-10-01 06:00:00 22.6 21 Nordeste 36 Nordeste 0 -- -- 74
2019-10-01 05:00:00 26.3 14 Nordeste 40 Nordeste 0 -- -- 35
2019-10-01 04:00:00 28.9 23 Nordeste 37 Nordeste 0 -- -- 21
2019-10-01 03:00:00 28.6 26 Nordeste 42 Norte 0 -- -- 19
2019-10-01 02:00:00 28.4 26 Nordeste 40 Nordeste 0 -- -- 22
2019-10-01 01:00:00 28.1 23 Nordeste 42 Nordeste 0 -- -- 31
2019-10-01 00:00:00 27.3 23 Nordeste 37 Nordeste 0 -- -- 38
2019-09-30 23:00:00 25.7 17 Nordeste 36 Nordeste 0 -- -- 48
2019-09-30 22:00:00 23.3 18 Nordeste 35 Nordeste 0 -- -- 71
2019-09-30 21:00:00 23.2 26 Nordeste 42 Nordeste 0 -- -- 76
2019-09-30 20:00:00 23.6 2 Norte 16 Sudoeste 0 -- -- 80
2019-09-30 19:00:00 24.9 15 Sudoeste 29 Norte 0 -- -- 76
2019-09-30 18:00:00 29.6 11 Nordeste 36 Norte 0 -- -- 54
2019-09-30 17:00:00 29.2 26 Nordeste 43 Nordeste 0 -- -- 56
2019-09-30 16:00:00 29.2 18 Nordeste 33 Nordeste 0 -- -- 60
2019-09-30 15:00:00 29.1 23 Nordeste 39 Nordeste 0 -- -- 59
2019-09-30 14:00:00 29.3 22 Nordeste 37 Nordeste 0 -- -- 59
2019-09-30 13:00:00 29.8 20 Nordeste 30 Nordeste 0 -- -- 56
2019-09-30 12:00:00 30.7 13 Nordeste 28 Nordeste 0 -- -- 51
2019-09-30 11:00:00 28.7 15 Nordeste 29 Nordeste 0 -- -- 51
2019-09-30 10:00:00 26.2 19 Nordeste 28 Nordeste 0 -- -- 55
2019-09-30 09:00:00 24.8 4 Este 29 Nordeste 0 -- -- 51
2019-09-30 08:00:00 24 17 Nordeste 35 Nordeste 0 -- -- 46
2019-09-30 07:00:00 24.2 13 Nordeste 29 Nordeste 0 -- -- 47
2019-09-30 06:00:00 24.2 17 Nordeste 30 Norte 0 -- -- 46
2019-09-30 05:00:00 24.2 14 Nordeste 37 Nordeste 0 -- -- 43
2019-09-30 04:00:00 23.2 21 Nordeste 36 Norte 0 -- -- 61
2019-09-30 03:00:00 22.4 18 Nordeste 39 Nordeste 0 -- -- 69
2019-09-30 02:00:00 21.9 23 Nordeste 53 Nordeste 0 -- -- 77
2019-09-30 01:00:00 21.8 31 Nordeste 51 Nordeste 0 -- -- 81
2019-09-30 00:00:00 22 21 Norte 33 Nordeste 0 -- -- 79
2019-09-29 23:00:00 22.2 19 Norte 32 Norte 0 -- -- 78
2019-09-29 22:00:00 22.4 25 Nordeste 38 Nordeste 0 -- -- 79
2019-09-29 21:00:00 22.9 19 Nordeste 36 Nordeste 0 -- -- 77
2019-09-29 20:00:00 23.7 18 Nordeste 31 Nordeste 0 -- -- 75
2019-09-29 19:00:00 25.5 18 Nordeste 30 Nordeste 0 -- -- 70
2019-09-29 18:00:00 26.4 14 Nordeste 27 Nordeste 0 -- -- 67
2019-09-29 17:00:00 27.7 15 Nordeste 31 Nordeste 0 -- -- 62
2019-09-29 16:00:00 28.6 18 Nordeste 36 Nordeste 0 -- -- 59
2019-09-29 15:00:00 28.3 22 Nordeste 35 Nordeste 0 -- -- 59
2019-09-29 14:00:00 28.3 19 Nordeste 33 Nordeste 0 -- -- 59
2019-09-29 13:00:00 27.3 20 Nordeste 37 Nordeste 0 -- -- 61
2019-09-29 12:00:00 25.5 24 Nordeste 40 Nordeste 0 -- -- 66
2019-09-29 11:00:00 25.3 18 Nordeste 36 Nordeste 0 -- -- 67
2019-09-29 10:00:00 23.7 21 Nordeste 45 Norte 0 -- -- 72
2019-09-29 09:00:00 21.9 26 Nordeste 44 Nordeste 0 -- -- 77
2019-09-29 08:00:00 21.3 23 Nordeste 48 Nordeste 0 -- -- 78
2019-09-29 07:00:00 21.5 28 Nordeste 46 Nordeste 0 -- -- 79
2019-09-29 06:00:00 21.4 23 Nordeste 48 Norte 0 -- -- 80
2019-09-29 05:00:00 21.3 21 Norte 39 Nordeste 0 -- -- 81
2019-09-29 04:00:00 21.3 23 Nordeste 37 Nordeste 0 -- -- 81
2019-09-29 03:00:00 21.4 18 Norte 33 Norte 0 -- -- 80
2019-09-29 02:00:00 21.6 19 Norte 35 Norte 0 -- -- 78
2019-09-29 01:00:00 21.7 20 Norte 34 Norte 0 -- -- 78
2019-09-29 00:00:00 21.8 21 Nordeste 36 Norte 0 -- -- 77
2019-09-28 23:00:00 21.9 21 Nordeste 35 Norte 0 -- -- 76
2019-09-28 22:00:00 21.9 21 Nordeste 38 Nordeste 0 -- -- 75
2019-09-28 21:00:00 22.4 18 Nordeste 34 Nordeste 0 -- -- 73
2019-09-28 20:00:00 23.2 22 Norte 36 Nordeste 0 -- -- 72
2019-09-28 19:00:00 24.3 21 Nordeste 38 Nordeste 0 -- -- 69
2019-09-28 18:00:00 25.9 19 Nordeste 35 Nordeste 0 -- -- 63
2019-09-28 17:00:00 25.8 23 Nordeste 42 Nordeste 0 -- -- 63
2019-09-28 16:00:00 26.6 23 Nordeste 46 Nordeste 0 -- -- 61
2019-09-28 15:00:00 26.2 28 Nordeste 50 Nordeste 0 -- -- 61
2019-09-28 14:00:00 26.2 28 Nordeste 49 Nordeste 0 -- -- 62
2019-09-28 13:00:00 25.8 30 Nordeste 48 Nordeste 0 -- -- 62
2019-09-28 12:00:00 25.6 28 Nordeste 49 Nordeste 0 -- -- 64
2019-09-28 11:00:00 24.5 27 Nordeste 50 Norte 0 -- -- 66
2019-09-28 10:00:00 23.2 28 Nordeste 52 Nordeste 0 -- -- 71
2019-09-28 09:00:00 22 29 Nordeste 46 Nordeste 0 -- -- 75
2019-09-28 08:00:00 21.3 28 Nordeste 45 Nordeste 0 -- -- 76
2019-09-28 07:00:00 21.6 24 Norte 41 Norte 0 -- -- 70
2019-09-28 06:00:00 21.2 22 Nordeste 40 Nordeste 0 -- -- 78
2019-09-28 05:00:00 21.3 21 Nordeste 41 Nordeste 0 -- -- 79
2019-09-28 04:00:00 21.5 22 Nordeste 43 Nordeste 0 -- -- 75
2019-09-28 03:00:00 21.5 19 Nordeste 45 Nordeste 0 -- -- 79
2019-09-28 02:00:00 21.6 23 Nordeste 40 Norte 0 -- -- 77
2019-09-28 01:00:00 21.9 21 Norte 39 Norte 0 -- -- 75
2019-09-28 00:00:00 21.8 22 Nordeste 41 Nordeste 0 -- -- 78
2019-09-27 23:00:00 22 23 Nordeste 47 Nordeste 0 -- -- 75
2019-09-27 22:00:00 22.4 22 Nordeste 36 Nordeste 0 -- -- 70
2019-09-27 21:00:00 22.8 18 Nordeste 39 Nordeste 0 -- -- 72
2019-09-27 20:00:00 23.2 26 Nordeste 53 Nordeste 0 -- -- 69
2019-09-27 19:00:00 24.5 31 Nordeste 49 Nordeste 0 -- -- 64
2019-09-27 18:00:00 25.8 23 Nordeste 44 Nordeste 0 -- -- 61
2019-09-27 17:00:00 26.1 26 Nordeste 47 Nordeste 0 -- -- 63
2019-09-27 16:00:00 26.6 26 Nordeste 47 Nordeste 0 -- -- 60
2019-09-27 15:00:00 27 25 Nordeste 49 Nordeste 0 -- -- 58
2019-09-27 14:00:00 26.6 27 Nordeste 48 Nordeste 0 -- -- 60
2019-09-27 13:00:00 26.6 28 Nordeste 51 Nordeste 0 -- -- 61
2019-09-27 12:00:00 25.9 28 Nordeste 48 Norte 0 -- -- 62
2019-09-27 11:00:00 25.2 26 Nordeste 50 Norte 0 -- -- 63
2019-09-27 10:00:00 24 27 Nordeste 50 Norte 0 -- -- 69
2019-09-27 09:00:00 22.5 23 Nordeste 44 Norte 0 -- -- 72
2019-09-27 08:00:00 21.7 18 Nordeste 41 Norte 0 -- -- 77
2019-09-27 07:00:00 21.9 22 Norte 41 Norte 0 -- -- 73
2019-09-27 06:00:00 22.2 24 Norte 41 Norte 0 -- -- 71
2019-09-27 05:00:00 21.9 17 Norte 35 Nordeste 0 -- -- 74
2019-09-27 04:00:00 22.1 16 Norte 40 Nordeste 0 -- -- 74
2019-09-27 03:00:00 22.1 21 Norte 36 Nordeste 0 -- -- 74
2019-09-27 02:00:00 22 22 Nordeste 41 Nordeste 0 -- -- 76
2019-09-27 01:00:00 22.2 23 Nordeste 48 Nordeste 0 -- -- 72
2019-09-27 00:00:00 22.3 24 Nordeste 46 Norte 0 -- -- 73
2019-09-26 23:00:00 22.4 22 Nordeste 45 Nordeste 0 -- -- 74
2019-09-26 22:00:00 22.8 22 Nordeste 47 Norte 0 -- -- 70
2019-09-26 21:00:00 22.7 26 Nordeste 47 Nordeste 0 -- -- 69
2019-09-26 20:00:00 23.1 19 Nordeste 42 Nordeste 0 -- -- 70
2019-09-26 19:00:00 24.4 25 Nordeste 47 Nordeste 0 -- -- 64
2019-09-26 18:00:00 25.5 23 Nordeste 43 Nordeste 0 -- -- 63
2019-09-26 17:00:00 26.2 26 Nordeste 49 Nordeste 0 -- -- 63
2019-09-26 16:00:00 26.6 30 Nordeste 51 Nordeste 0 -- -- 60
2019-09-26 15:00:00 26.8 31 Nordeste 55 Nordeste 0 -- -- 57
2019-09-26 14:00:00 27.6 24 Nordeste 51 Nordeste 0 -- -- 56
2019-09-26 13:00:00 26.5 30 Nordeste 55 Nordeste 0 -- -- 61
2019-09-26 12:00:00 26.1 31 Nordeste 56 Nordeste 0 -- -- 62
2019-09-26 11:00:00 25.1 29 Nordeste 47 Nordeste 0 -- -- 64
2019-09-26 10:00:00 24.5 21 Nordeste 42 Norte 0 -- -- 69
2019-09-26 09:00:00 23 24 Norte 48 Nordeste 0 -- -- 72
2019-09-26 08:00:00 22.1 22 Nordeste 41 Nordeste 0 -- -- 76
2019-09-26 07:00:00 21.9 25 Nordeste 42 Nordeste 0 -- -- 75
2019-09-26 06:00:00 22.1 21 Nordeste 46 Nordeste 0 -- -- 74
2019-09-26 05:00:00 22.2 25 Nordeste 48 Nordeste 0 -- -- 73
2019-09-26 04:00:00 22.3 27 Nordeste 45 Nordeste 0 -- -- 72
2019-09-26 03:00:00 22.3 24 Nordeste 41 Norte 0 -- -- 71
2019-09-26 02:00:00 22.2 21 Nordeste 38 Norte 0 -- -- 73
2019-09-26 01:00:00 22.4 18 Norte 40 Nordeste 0 -- -- 72
2019-09-26 00:00:00 22.4 24 Nordeste 45 Nordeste 0 -- -- 73
2019-09-25 23:00:00 22.8 26 Nordeste 46 Nordeste 0 -- -- 72
2019-09-25 22:00:00 23 25 Norte 42 Norte 0 -- -- 68
2019-09-25 21:00:00 23 24 Nordeste 50 Norte 0 -- -- 68
2019-09-25 20:00:00 23.4 30 Nordeste 60 Nordeste 0 -- -- 67
2019-09-25 19:00:00 24.9 27 Nordeste 49 Nordeste 0 -- -- 65
2019-09-25 18:00:00 26.3 25 Nordeste 48 Nordeste 0 -- -- 60
2019-09-25 17:00:00 27 28 Nordeste 50 Nordeste 0 -- -- 59
2019-09-25 16:00:00 27.5 27 Nordeste 48 Nordeste 0 -- -- 56
2019-09-25 15:00:00 27.6 29 Nordeste 53 Nordeste 0 -- -- 56
2019-09-25 14:00:00 27.5 32 Nordeste 56 Nordeste 0 -- -- 58
2019-09-25 13:00:00 27.1 31 Nordeste 52 Nordeste 0 -- -- 58
2019-09-25 12:00:00 27.3 28 Nordeste 43 Nordeste 0 -- -- 51
2019-09-25 11:00:00 25.9 24 Nordeste 49 Nordeste 0 -- -- 54
2019-09-25 10:00:00 24.1 25 Norte 46 Nordeste 0 -- -- 63
2019-09-25 09:00:00 22 5 Noroeste 12 Sudoeste 0 -- -- 72
2019-09-25 08:00:00 20 3 Sudoeste 24 Norte 0 -- -- 79
2019-09-25 07:00:00 20.7 10 Norte 22 Nordeste 0 -- -- 74
2019-09-25 06:00:00 20.6 11 Norte 19 Norte 0 -- -- 71
2019-09-25 05:00:00 21 10 Norte 23 Nordeste 0 -- -- 70
2019-09-25 04:00:00 20.7 12 Norte 27 Norte 0 -- -- 72
2019-09-25 03:00:00 21.6 17 Norte 33 Norte 0 -- -- 69
2019-09-25 02:00:00 21.8 22 Norte 44 Norte 0 -- -- 68
2019-09-25 01:00:00 21.6 21 Nordeste 44 Nordeste 0 -- -- 70
2019-09-25 00:00:00 21.7 24 Nordeste 41 Nordeste 0 -- -- 70
2019-09-24 23:00:00 21.9 26 Norte 39 Norte 0 -- -- 68
2019-09-24 22:00:00 21.9 21 Nordeste 36 Nordeste 0 -- -- 69
2019-09-24 21:00:00 22.2 22 Nordeste 40 Nordeste 0 -- -- 67
2019-09-24 20:00:00 22.8 23 Nordeste 44 Nordeste 0 -- -- 65
2019-09-24 19:00:00 24.7 25 Nordeste 47 Nordeste 0 -- -- 60
2019-09-24 18:00:00 26 26 Nordeste 54 Nordeste 0 -- -- 55
2019-09-24 17:00:00 27 25 Nordeste 51 Nordeste 0 -- -- 53
2019-09-24 16:00:00 26.7 35 Nordeste 58 Norte 0 -- -- 56
2019-09-24 15:00:00 26.3 36 Nordeste 56 Nordeste 0 -- -- 59
2019-09-24 14:00:00 26.5 34 Nordeste 52 Nordeste 0 -- -- 56
2019-09-24 13:00:00 26.6 31 Nordeste 52 Nordeste 0 -- -- 56
2019-09-24 12:00:00 26.6 28 Nordeste 45 Nordeste 0 -- -- 56
2019-09-24 11:00:00 25.4 26 Nordeste 48 Nordeste 0 -- -- 59
2019-09-24 10:00:00 23.7 26 Nordeste 43 Nordeste 0 -- -- 67
2019-09-24 09:00:00 22.8 15 Nordeste 30 Nordeste 0 -- -- 72
2019-09-24 08:00:00 21.6 15 Norte 40 Nordeste 0 -- -- 75
2019-09-24 07:00:00 21.5 23 Nordeste 46 Norte 0 -- -- 79
2019-09-24 06:00:00 21.6 26 Nordeste 46 Nordeste 0 -- -- 77
2019-09-24 05:00:00 22 18 Nordeste 42 Nordeste 0 -- -- 72
2019-09-24 04:00:00 22 23 Nordeste 45 Nordeste 0 -- -- 71
2019-09-24 03:00:00 21.7 17 Nordeste 40 Nordeste 0 -- -- 72
2019-09-24 02:00:00 22 23 Nordeste 39 Nordeste 0 -- -- 70
2019-09-24 01:00:00 22.2 20 Norte 41 Nordeste 0 -- -- 70
2019-09-24 00:00:00 22.5 21 Norte 44 Norte 0 -- -- 67
2019-09-23 23:00:00 22.7 20 Nordeste 44 Norte 0 -- -- 65
2019-09-23 22:00:00 22.5 25 Nordeste 47 Nordeste 0 -- -- 72
2019-09-23 21:00:00 22.8 24 Nordeste 41 Nordeste 0 -- -- 70
2019-09-23 20:00:00 23.7 18 Nordeste 48 Nordeste 0 -- -- 63
2019-09-23 19:00:00 24.7 30 Nordeste 50 Nordeste 0 -- -- 61
2019-09-23 18:00:00 25.4 35 Nordeste 54 Nordeste 0 -- -- 56
2019-09-23 17:00:00 26.3 26 Nordeste 48 Nordeste 0 -- -- 61
2019-09-23 16:00:00 26.6 28 Nordeste 50 Nordeste 0 -- -- 59
2019-09-23 15:00:00 26.8 30 Nordeste 50 Nordeste 0 -- -- 59
2019-09-23 14:00:00 27.2 28 Nordeste 52 Nordeste 0 -- -- 53
2019-09-23 13:00:00 26.5 31 Nordeste 55 Nordeste 0 -- -- 58
2019-09-23 12:00:00 25.9 28 Nordeste 49 Nordeste 0 -- -- 62
2019-09-23 11:00:00 24.9 26 Norte 46 Norte 0 -- -- 63
2019-09-23 10:00:00 24.2 23 Nordeste 48 Norte 0 -- -- 68
2019-09-23 09:00:00 22.6 25 Norte 45 Norte 0 -- -- 73
2019-09-23 08:00:00 21.6 18 Nordeste 36 Nordeste 0 -- -- 76
2019-09-23 07:00:00 21.6 19 Nordeste 35 Nordeste 0 -- -- 81
2019-09-23 06:00:00 21.6 18 Nordeste 31 Nordeste 0 -- -- 85
2019-09-23 05:00:00 21.7 16 Nordeste 31 Nordeste 0 -- -- 87
2019-09-23 04:00:00 21.9 18 Nordeste 36 Norte 0 -- -- 86
2019-09-23 03:00:00 22.2 16 Nordeste 32 Norte 0 -- -- 86
2019-09-23 02:00:00 22.2 17 Nordeste 33 Nordeste 0 -- -- 88
2019-09-23 01:00:00 22.6 22 Nordeste 42 Nordeste 0 -- -- 84
2019-09-23 00:00:00 22.9 21 Nordeste 48 Nordeste 0 -- -- 82
2019-09-22 23:00:00 23.1 27 Nordeste 43 Nordeste 0 -- -- 82
2019-09-22 22:00:00 22.7 29 Nordeste 47 Nordeste 0 -- -- 86
2019-09-22 21:00:00 23.3 27 Nordeste 44 Nordeste 0 -- -- 83
2019-09-22 20:00:00 23.5 9 Sur 24 Sudoeste 0 -- -- 81
2019-09-22 19:00:00 25 13 Sudoeste 25 Sudoeste 0 -- -- 74
2019-09-22 18:00:00 27.4 10 Nordeste 22 Sur 0 -- -- 65
2019-09-22 17:00:00 26.3 10 Sur 34 Nordeste 0 -- -- 70
2019-09-22 16:00:00 26.8 21 Nordeste 40 Nordeste 0 -- -- 67
2019-09-22 15:00:00 25.3 11 Sur 20 Sur 0 -- -- 75
2019-09-22 14:00:00 25.2 6 Sudoeste 23 Sur 0 -- -- 73
2019-09-22 13:00:00 26.2 18 Sudoeste 28 Sudoeste 0 -- -- 70
2019-09-22 12:00:00 27.1 8 Sur 19 Sudoeste 0 -- -- 65
2019-09-22 11:00:00 26.4 8 Sur 19 Sudeste 0 -- -- 67
2019-09-22 10:00:00 24.9 8 Sudoeste 14 Sudoeste 0 -- -- 71
2019-09-22 09:00:00 22.6 5 Nordeste 11 Norte 0 -- -- 77
2019-09-22 08:00:00 19.2 4 Noroeste 9 Noroeste 0 -- -- 91
2019-09-22 07:00:00 19.3 6 Noroeste 9 Noroeste 0 -- -- 92
2019-09-22 06:00:00 19.2 4 Norte 8 Norte 0 -- -- 92
2019-09-22 05:00:00 19.5 5 Oeste 8 Sudoeste 0 -- -- 91
2019-09-22 04:00:00 19.2 5 Oeste 6 Oeste 0 -- -- 93
2019-09-22 03:00:00 19.7 4 Oeste 6 Oeste 0 -- -- 92
2019-09-22 02:00:00 19.6 2 Sudeste 5 Este 0 -- -- 92
2019-09-22 01:00:00 20.9 2 Sudoeste 8 Sudoeste 0 -- -- 91
2019-09-22 00:00:00 21 6 Sudoeste 9 Sudoeste 0 -- -- 92
2019-09-21 23:00:00 21 6 Sudoeste 9 Sudoeste 0 -- -- 91
2019-09-21 22:00:00 21.1 0 Calma 7 Sur 0 -- -- 88
2019-09-21 21:00:00 22 3 Sur 14 Sudoeste 0 -- -- 85
2019-09-21 20:00:00 23 12 Sudoeste 24 Nordeste 0 -- -- 79
2019-09-21 19:00:00 25.3 15 Nordeste 29 Nordeste 0 -- -- 66
2019-09-21 18:00:00 24.4 14 Este 23 Nordeste 0 -- -- 74
2019-09-21 17:00:00 25.1 14 Nordeste 28 Nordeste 0 -- -- 72
2019-09-21 16:00:00 25.7 17 Nordeste 28 Este 0 -- -- 68
2019-09-21 15:00:00 26.1 16 Nordeste 33 Nordeste 0 -- -- 66
2019-09-21 14:00:00 26.5 19 Nordeste 30 Nordeste 0 -- -- 65
2019-09-21 13:00:00 26.9 19 Nordeste 33 Nordeste 0 -- -- 62
2019-09-21 12:00:00 26 19 Nordeste 29 Nordeste 0 -- -- 65
2019-09-21 11:00:00 25.7 16 Nordeste 25 Nordeste 0 -- -- 64
2019-09-21 10:00:00 24.6 9 Norte 17 Nordeste 0 -- -- 64
2019-09-21 09:00:00 21.8 8 Nordeste 13 Nordeste 0 -- -- 74
2019-09-21 08:00:00 18.4 6 Noroeste 9 Norte 0 -- -- 85
2019-09-21 07:00:00 18.4 3 Noroeste 8 Oeste 0 -- -- 87
2019-09-21 06:00:00 19.9 2 Nordeste 19 Noroeste 0 -- -- 78
2019-09-21 05:00:00 20.5 7 Norte 18 Norte 0 -- -- 77
2019-09-21 04:00:00 21 10 Norte 21 Norte 0 -- -- 77
2019-09-21 03:00:00 21.4 11 Norte 23 Norte 0 -- -- 76
2019-09-21 02:00:00 21.7 14 Norte 21 Norte 0 -- -- 76
2019-09-21 01:00:00 21.7 12 Nordeste 27 Norte 0 -- -- 77
2019-09-21 00:00:00 21.9 15 Norte 23 Nordeste 0 -- -- 76
2019-09-20 23:00:00 22 6 Nordeste 25 Nordeste 0 -- -- 78
2019-09-20 22:00:00 22.5 13 Norte 32 Norte 0 -- -- 73
2019-09-20 21:00:00 22.8 18 Nordeste 34 Nordeste 0 -- -- 72
2019-09-20 20:00:00 23.7 18 Nordeste 33 Nordeste 0 -- -- 69
2019-09-20 19:00:00 25.8 14 Nordeste 35 Nordeste 0 -- -- 60
2019-09-20 18:00:00 27.2 22 Nordeste 40 Nordeste 0 -- -- 56
2019-09-20 17:00:00 27.3 23 Nordeste 45 Nordeste 0 -- -- 56
2019-09-20 16:00:00 26.9 24 Nordeste 45 Nordeste 0 -- -- 59
2019-09-20 15:00:00 27.1 23 Nordeste 41 Nordeste 0 -- -- 55
2019-09-20 14:00:00 26.8 22 Nordeste 42 Nordeste 0 -- -- 58
2019-09-20 13:00:00 26.5 21 Nordeste 39 Nordeste 0 -- -- 61
2019-09-20 12:00:00 26.7 19 Nordeste 39 Este 0 -- -- 58
2019-09-20 11:00:00 25.4 20 Nordeste 35 Nordeste 0 -- -- 62
2019-09-20 10:00:00 24.2 19 Nordeste 32 Norte 0 -- -- 64
2019-09-20 09:00:00 22.8 15 Norte 26 Norte 0 -- -- 68
2019-09-20 08:00:00 21.8 17 Norte 32 Nordeste 0 -- -- 71
2019-09-20 07:00:00 21.9 18 Norte 42 Norte 0 -- -- 74
2019-09-20 06:00:00 22 25 Norte 40 Norte 0 -- -- 73
2019-09-20 05:00:00 21.6 17 Norte 30 Norte 0 -- -- 72
2019-09-20 04:00:00 21.2 13 Norte 23 Norte 0 -- -- 74
2019-09-20 03:00:00 22.2 14 Norte 51 Norte 0 -- -- 66
2019-09-20 02:00:00 22 30 Nordeste 49 Norte 0 -- -- 71
2019-09-20 01:00:00 21.6 21 Nordeste 38 Nordeste 0 -- -- 75
2019-09-20 00:00:00 22 8 Norte 23 Norte 0 -- -- 67